sensor_id;sensor_type;location;lat;lon;timestamp;temperature;humidity
25050;DHT22;13046;49.814;9.918;2023-07-13T01:48:03;24.20;99.90
25050;DHT22;13046;49.814;9.918;2023-07-13T01:50:29;17.80;99.90
25050;DHT22;13046;49.814;9.918;2023-07-13T01:55:21;17.50;99.90
25050;DHT22;13046;49.814;9.918;2023-07-13T02:00:14;17.50;99.90
25050;DHT22;13046;49.814;9.918;2023-07-13T02:02:46;17.60;99.90
25050;DHT22;13046;49.814;9.918;2023-07-13T02:24:42;17.60;99.90
25050;DHT22;13046;49.814;9.918;2023-07-13T02:27:08;17.20;99.90
25050;DHT22;13046;49.814;9.918;2023-07-13T02:29:33;17.10;99.90
25050;DHT22;13046;49.814;9.918;2023-07-13T02:31:59;17.10;99.90
25050;DHT22;13046;49.814;9.918;2023-07-13T02:34:24;17.00;99.90
25050;DHT22;13046;49.814;9.918;2023-07-13T02:36:50;16.90;99.90
25050;DHT22;13046;49.814;9.918;2023-07-13T02:39:16;16.90;99.90
25050;DHT22;13046;49.814;9.918;2023-07-13T02:41:42;17.00;99.90
25050;DHT22;13046;49.814;9.918;2023-07-13T02:44:07;16.80;99.90
25050;DHT22;13046;49.814;9.918;2023-07-13T02:46:35;16.80;99.90
25050;DHT22;13046;49.814;9.918;2023-07-13T02:49:01;16.80;99.90
25050;DHT22;13046;49.814;9.918;2023-07-13T02:51:27;16.70;99.90
25050;DHT22;13046;49.814;9.918;2023-07-13T02:53:53;16.70;99.90
25050;DHT22;13046;49.814;9.918;2023-07-13T02:56:23;16.60;99.90
25050;DHT22;13046;49.814;9.918;2023-07-13T02:58:49;16.50;99.90
25050;DHT22;13046;49.814;9.918;2023-07-13T03:01:14;16.50;99.90
25050;DHT22;13046;49.814;9.918;2023-07-13T03:03:45;16.50;99.90
25050;DHT22;13046;49.814;9.918;2023-07-13T03:06:12;16.50;99.90
25050;DHT22;13046;49.814;9.918;2023-07-13T03:08:45;16.50;99.90
25050;DHT22;13046;49.814;9.918;2023-07-13T03:11:15;16.50;99.90
25050;DHT22;13046;49.814;9.918;2023-07-13T03:13:42;16.50;99.90
25050;DHT22;13046;49.814;9.918;2023-07-13T03:16:10;16.50;99.90
25050;DHT22;13046;49.814;9.918;2023-07-13T03:18:37;16.50;99.90
25050;DHT22;13046;49.814;9.918;2023-07-13T03:21:05;16.40;99.90
25050;DHT22;13046;49.814;9.918;2023-07-13T03:23:31;16.30;99.90
25050;DHT22;13046;49.814;9.918;2023-07-13T03:28:29;16.40;99.90
25050;DHT22;13046;49.814;9.918;2023-07-13T03:31:04;16.40;99.90
25050;DHT22;13046;49.814;9.918;2023-07-13T03:33:31;16.40;99.90
25050;DHT22;13046;49.814;9.918;2023-07-13T03:35:57;16.30;99.90
25050;DHT22;13046;49.814;9.918;2023-07-13T03:38:23;16.30;99.90
25050;DHT22;13046;49.814;9.918;2023-07-13T03:40:50;16.20;99.90
25050;DHT22;13046;49.814;9.918;2023-07-13T03:43:16;16.20;99.90
25050;DHT22;13046;49.814;9.918;2023-07-13T03:45:42;16.20;99.90
25050;DHT22;13046;49.814;9.918;2023-07-13T03:48:08;16.20;99.90
25050;DHT22;13046;49.814;9.918;2023-07-13T03:50:33;16.20;99.90
25050;DHT22;13046;49.814;9.918;2023-07-13T03:53:00;16.10;99.90
25050;DHT22;13046;49.814;9.918;2023-07-13T03:55:25;16.00;99.90
25050;DHT22;13046;49.814;9.918;2023-07-13T03:57:57;16.10;99.90
25050;DHT22;13046;49.814;9.918;2023-07-13T04:00:24;16.10;99.90
25050;DHT22;13046;49.814;9.918;2023-07-13T04:02:53;16.10;99.90
25050;DHT22;13046;49.814;9.918;2023-07-13T04:05:18;16.10;99.90
25050;DHT22;13046;49.814;9.918;2023-07-13T04:07:45;16.10;99.90
25050;DHT22;13046;49.814;9.918;2023-07-13T04:10:11;16.00;99.90
25050;DHT22;13046;49.814;9.918;2023-07-13T04:12:36;16.10;99.90
25050;DHT22;13046;49.814;9.918;2023-07-13T04:15:03;16.10;99.90
25050;DHT22;13046;49.814;9.918;2023-07-13T04:17:29;16.00;99.90
25050;DHT22;13046;49.814;9.918;2023-07-13T04:19:54;16.10;99.90
25050;DHT22;13046;49.814;9.918;2023-07-13T04:22:20;16.00;99.90
25050;DHT22;13046;49.814;9.918;2023-07-13T04:24:45;15.90;99.90
25050;DHT22;13046;49.814;9.918;2023-07-13T04:27:11;16.00;99.90
25050;DHT22;13046;49.814;9.918;2023-07-13T04:29:37;16.10;99.90
25050;DHT22;13046;49.814;9.918;2023-07-13T04:32:03;16.20;99.90
25050;DHT22;13046;49.814;9.918;2023-07-13T04:34:28;16.20;99.90
25050;DHT22;13046;49.814;9.918;2023-07-13T04:36:54;16.30;99.90
25050;DHT22;13046;49.814;9.918;2023-07-13T04:39:19;16.40;99.90
25050;DHT22;13046;49.814;9.918;2023-07-13T04:41:46;16.50;99.90
25050;DHT22;13046;49.814;9.918;2023-07-13T04:44:11;16.60;99.90
25050;DHT22;13046;49.814;9.918;2023-07-13T04:46:37;16.70;99.90
25050;DHT22;13046;49.814;9.918;2023-07-13T04:49:03;16.90;99.90
25050;DHT22;13046;49.814;9.918;2023-07-13T04:51:30;17.00;99.90
25050;DHT22;13046;49.814;9.918;2023-07-13T04:53:55;17.20;99.90
25050;DHT22;13046;49.814;9.918;2023-07-13T04:56:21;17.30;99.90
25050;DHT22;13046;49.814;9.918;2023-07-13T04:58:46;17.40;99.90
25050;DHT22;13046;49.814;9.918;2023-07-13T05:01:12;17.50;99.90
25050;DHT22;13046;49.814;9.918;2023-07-13T05:03:39;17.70;99.90
25050;DHT22;13046;49.814;9.918;2023-07-13T05:06:08;17.70;99.90
25050;DHT22;13046;49.814;9.918;2023-07-13T05:08:36;17.80;99.90
25050;DHT22;13046;49.814;9.918;2023-07-13T05:11:03;17.90;99.90
25050;DHT22;13046;49.814;9.918;2023-07-13T05:13:29;17.90;99.90
25050;DHT22;13046;49.814;9.918;2023-07-13T05:16:01;18.00;99.90
25050;DHT22;13046;49.814;9.918;2023-07-13T05:18:27;18.00;99.90
25050;DHT22;13046;49.814;9.918;2023-07-13T05:21:08;18.10;99.90
25050;DHT22;13046;49.814;9.918;2023-07-13T05:23:35;18.20;99.90
25050;DHT22;13046;49.814;9.918;2023-07-13T05:26:01;18.20;99.90
25050;DHT22;13046;49.814;9.918;2023-07-13T05:28:28;18.20;99.90
25050;DHT22;13046;49.814;9.918;2023-07-13T05:30:54;18.20;99.90
25050;DHT22;13046;49.814;9.918;2023-07-13T05:33:20;18.30;99.90
25050;DHT22;13046;49.814;9.918;2023-07-13T05:35:46;18.40;99.90
25050;DHT22;13046;49.814;9.918;2023-07-13T05:38:12;18.60;99.90
25050;DHT22;13046;49.814;9.918;2023-07-13T05:40:38;18.70;99.90
25050;DHT22;13046;49.814;9.918;2023-07-13T05:43:04;18.90;99.90
25050;DHT22;13046;49.814;9.918;2023-07-13T05:45:29;18.90;99.90
25050;DHT22;13046;49.814;9.918;2023-07-13T05:47:55;18.90;99.90
25050;DHT22;13046;49.814;9.918;2023-07-13T05:50:20;19.00;99.90
25050;DHT22;13046;49.814;9.918;2023-07-13T05:52:46;19.10;99.90
25050;DHT22;13046;49.814;9.918;2023-07-13T05:55:12;19.20;99.90
25050;DHT22;13046;49.814;9.918;2023-07-13T05:57:38;19.30;99.90
25050;DHT22;13046;49.814;9.918;2023-07-13T06:00:04;19.20;99.90
25050;DHT22;13046;49.814;9.918;2023-07-13T06:02:37;19.10;99.90
25050;DHT22;13046;49.814;9.918;2023-07-13T06:05:03;19.20;99.90
25050;DHT22;13046;49.814;9.918;2023-07-13T06:07:29;19.20;99.90
25050;DHT22;13046;49.814;9.918;2023-07-13T06:09:54;19.30;99.90
25050;DHT22;13046;49.814;9.918;2023-07-13T06:14:46;19.30;99.90
25050;DHT22;13046;49.814;9.918;2023-07-13T06:17:12;19.20;99.90
25050;DHT22;13046;49.814;9.918;2023-07-13T06:22:04;19.10;99.90
25050;DHT22;13046;49.814;9.918;2023-07-13T06:24:30;19.00;99.90
25050;DHT22;13046;49.814;9.918;2023-07-13T06:26:55;19.20;99.90
25050;DHT22;13046;49.814;9.918;2023-07-13T06:29:21;19.40;99.90
25050;DHT22;13046;49.814;9.918;2023-07-13T06:31:47;19.50;99.90
25050;DHT22;13046;49.814;9.918;2023-07-13T06:34:12;19.60;99.90
25050;DHT22;13046;49.814;9.918;2023-07-13T06:36:38;19.60;99.90
25050;DHT22;13046;49.814;9.918;2023-07-13T06:41:30;19.90;99.90
25050;DHT22;13046;49.814;9.918;2023-07-13T06:43:57;20.00;99.90
25050;DHT22;13046;49.814;9.918;2023-07-13T22:30:37;20.20;99.90
25050;DHT22;13046;49.814;9.918;2023-07-13T22:33:19;16.60;99.90
25050;DHT22;13046;49.814;9.918;2023-07-13T22:35:46;16.50;99.90
25050;DHT22;13046;49.814;9.918;2023-07-13T22:38:15;16.50;99.90
25050;DHT22;13046;49.814;9.918;2023-07-13T22:40:42;16.40;99.90
25050;DHT22;13046;49.814;9.918;2023-07-13T22:43:26;16.40;99.90
25050;DHT22;13046;49.814;9.918;2023-07-13T22:45:54;16.30;99.90
25050;DHT22;13046;49.814;9.918;2023-07-13T22:48:23;16.30;99.90
25050;DHT22;13046;49.814;9.918;2023-07-13T22:50:49;16.20;99.90
25050;DHT22;13046;49.814;9.918;2023-07-13T22:53:20;16.20;99.90
25050;DHT22;13046;49.814;9.918;2023-07-13T22:55:48;16.10;99.90
25050;DHT22;13046;49.814;9.918;2023-07-13T22:58:14;16.10;99.90
25050;DHT22;13046;49.814;9.918;2023-07-13T23:00:40;16.00;99.90
25050;DHT22;13046;49.814;9.918;2023-07-13T23:03:06;16.00;99.90
25050;DHT22;13046;49.814;9.918;2023-07-13T23:05:35;16.00;99.90
25050;DHT22;13046;49.814;9.918;2023-07-13T23:08:01;15.90;99.90
25050;DHT22;13046;49.814;9.918;2023-07-13T23:10:27;15.80;99.90
25050;DHT22;13046;49.814;9.918;2023-07-13T23:12:53;15.70;99.90
25050;DHT22;13046;49.814;9.918;2023-07-13T23:15:19;15.70;99.90
25050;DHT22;13046;49.814;9.918;2023-07-13T23:17:49;15.60;99.90
25050;DHT22;13046;49.814;9.918;2023-07-13T23:20:26;15.60;99.90
25050;DHT22;13046;49.814;9.918;2023-07-13T23:22:53;15.60;99.90
25050;DHT22;13046;49.814;9.918;2023-07-13T23:25:22;15.60;99.90
25050;DHT22;13046;49.814;9.918;2023-07-13T23:27:49;15.60;99.90
25050;DHT22;13046;49.814;9.918;2023-07-13T23:30:16;15.50;99.90
25050;DHT22;13046;49.814;9.918;2023-07-13T23:32:43;15.50;99.90
25050;DHT22;13046;49.814;9.918;2023-07-13T23:35:14;15.50;99.90
25050;DHT22;13046;49.814;9.918;2023-07-13T23:37:41;15.40;99.90
25050;DHT22;13046;49.814;9.918;2023-07-13T23:40:24;15.40;99.90
25050;DHT22;13046;49.814;9.918;2023-07-13T23:42:50;15.40;99.90
25050;DHT22;13046;49.814;9.918;2023-07-13T23:45:19;15.30;99.90
25050;DHT22;13046;49.814;9.918;2023-07-13T23:47:46;15.20;99.90
25050;DHT22;13046;49.814;9.918;2023-07-13T23:50:19;15.20;99.90
25050;DHT22;13046;49.814;9.918;2023-07-13T23:52:46;15.20;99.90
25050;DHT22;13046;49.814;9.918;2023-07-13T23:55:21;15.20;99.90
25050;DHT22;13046;49.814;9.918;2023-07-13T23:57:48;15.20;99.90
